sensor_id;sensor_type;location;lat;lon;timestamp;pressure;altitude;pressure_sealevel;temperature;humidity
51849;BME280;38952;51.090;-1.832;2023-11-21T00:02:05;100284.47;;;8.73;100.00
51849;BME280;38952;51.090;-1.832;2023-11-21T00:04:35;100288.84;;;8.74;100.00
51849;BME280;38952;51.090;-1.832;2023-11-21T00:07:01;100309.16;;;8.88;100.00
51849;BME280;38952;51.090;-1.832;2023-11-21T00:09:32;100285.56;;;8.72;100.00
51849;BME280;38952;51.090;-1.832;2023-11-21T00:12:00;100316.44;;;8.78;100.00
51849;BME280;38952;51.090;-1.832;2023-11-21T00:14:25;100286.72;;;8.54;100.00
51849;BME280;38952;51.090;-1.832;2023-11-21T00:16:51;100298.88;;;8.68;100.00
51849;BME280;38952;51.090;-1.832;2023-11-21T00:19:16;100316.78;;;8.86;100.00
51849;BME280;38952;51.090;-1.832;2023-11-21T00:21:44;100310.31;;;8.93;100.00
51849;BME280;38952;51.090;-1.832;2023-11-21T00:24:11;100322.22;;;9.14;100.00
51849;BME280;38952;51.090;-1.832;2023-11-21T00:26:41;100308.03;;;9.12;100.00
51849;BME280;38952;51.090;-1.832;2023-11-21T00:29:07;100325.25;;;9.17;100.00
51849;BME280;38952;51.090;-1.832;2023-11-21T00:31:35;100282.41;;;8.85;100.00
51849;BME280;38952;51.090;-1.832;2023-11-21T00:34:05;100279.47;;;8.65;100.00
51849;BME280;38952;51.090;-1.832;2023-11-21T00:36:38;100305.16;;;8.69;100.00
51849;BME280;38952;51.090;-1.832;2023-11-21T00:39:04;100322.06;;;8.71;100.00
51849;BME280;38952;51.090;-1.832;2023-11-21T00:41:31;100307.78;;;8.59;100.00
51849;BME280;38952;51.090;-1.832;2023-11-21T00:43:57;100327.78;;;8.69;100.00
51849;BME280;38952;51.090;-1.832;2023-11-21T00:46:27;100317.06;;;8.63;100.00
51849;BME280;38952;51.090;-1.832;2023-11-21T00:49:09;100300.44;;;8.42;100.00
51849;BME280;38952;51.090;-1.832;2023-11-21T00:51:37;100345.47;;;8.67;100.00
51849;BME280;38952;51.090;-1.832;2023-11-21T00:54:03;100332.22;;;8.53;100.00
51849;BME280;38952;51.090;-1.832;2023-11-21T00:56:28;100338.72;;;8.47;100.00
51849;BME280;38952;51.090;-1.832;2023-11-21T00:58:54;100343.13;;;8.53;100.00
51849;BME280;38952;51.090;-1.832;2023-11-21T01:01:22;100309.13;;;8.39;100.00
51849;BME280;38952;51.090;-1.832;2023-11-21T01:04:01;100339.91;;;8.56;100.00
51849;BME280;38952;51.090;-1.832;2023-11-21T01:06:27;100365.75;;;8.76;100.00
51849;BME280;38952;51.090;-1.832;2023-11-21T01:08:53;100349.34;;;8.71;100.00
51849;BME280;38952;51.090;-1.832;2023-11-21T01:11:21;100354.97;;;8.86;100.00
51849;BME280;38952;51.090;-1.832;2023-11-21T01:13:48;100362.63;;;8.89;100.00
51849;BME280;38952;51.090;-1.832;2023-11-21T01:16:14;100367.69;;;9.03;100.00
51849;BME280;38952;51.090;-1.832;2023-11-21T01:18:41;100342.00;;;8.99;100.00
51849;BME280;38952;51.090;-1.832;2023-11-21T01:21:07;100364.00;;;9.19;100.00
51849;BME280;38952;51.090;-1.832;2023-11-21T01:23:34;100351.97;;;9.15;100.00
51849;BME280;38952;51.090;-1.832;2023-11-21T01:26:00;100360.22;;;9.20;100.00
51849;BME280;38952;51.090;-1.832;2023-11-21T01:28:25;100353.09;;;9.19;100.00
51849;BME280;38952;51.090;-1.832;2023-11-21T01:30:51;100362.78;;;9.32;100.00
51849;BME280;38952;51.090;-1.832;2023-11-21T01:33:18;100357.50;;;9.25;100.00
51849;BME280;38952;51.090;-1.832;2023-11-21T01:35:53;100395.09;;;9.46;100.00
51849;BME280;38952;51.090;-1.832;2023-11-21T01:38:37;100370.41;;;9.30;100.00
51849;BME280;38952;51.090;-1.832;2023-11-21T01:41:03;100364.94;;;9.30;100.00
51849;BME280;38952;51.090;-1.832;2023-11-21T01:43:30;100397.56;;;9.47;100.00
51849;BME280;38952;51.090;-1.832;2023-11-21T01:45:57;100387.13;;;9.39;100.00
51849;BME280;38952;51.090;-1.832;2023-11-21T01:48:23;100388.22;;;9.38;100.00
51849;BME280;38952;51.090;-1.832;2023-11-21T01:50:49;100415.13;;;9.56;100.00
51849;BME280;38952;51.090;-1.832;2023-11-21T01:53:24;100430.50;;;9.68;100.00
51849;BME280;38952;51.090;-1.832;2023-11-21T01:55:51;100427.22;;;9.66;100.00
51849;BME280;38952;51.090;-1.832;2023-11-21T01:58:17;100411.88;;;9.59;100.00
51849;BME280;38952;51.090;-1.832;2023-11-21T02:00:52;100410.16;;;9.53;100.00
51849;BME280;38952;51.090;-1.832;2023-11-21T02:03:20;100426.63;;;9.64;100.00
51849;BME280;38952;51.090;-1.832;2023-11-21T02:05:53;100449.75;;;9.83;100.00
51849;BME280;38952;51.090;-1.832;2023-11-21T02:08:21;100408.03;;;9.60;100.00
51849;BME280;38952;51.090;-1.832;2023-11-21T02:10:47;100455.81;;;9.90;100.00
51849;BME280;38952;51.090;-1.832;2023-11-21T02:13:14;100437.41;;;9.75;100.00
51849;BME280;38952;51.090;-1.832;2023-11-21T02:15:41;100429.97;;;9.71;100.00
51849;BME280;38952;51.090;-1.832;2023-11-21T02:18:07;100455.75;;;9.80;100.00
51849;BME280;38952;51.090;-1.832;2023-11-21T02:20:36;100443.06;;;9.69;100.00
51849;BME280;38952;51.090;-1.832;2023-11-21T02:23:21;100452.88;;;9.65;100.00
51849;BME280;38952;51.090;-1.832;2023-11-21T02:25:50;100446.25;;;9.60;100.00
51849;BME280;38952;51.090;-1.832;2023-11-21T02:28:21;100477.25;;;9.76;100.00
51849;BME280;38952;51.090;-1.832;2023-11-21T02:30:54;100468.16;;;9.66;100.00
51849;BME280;38952;51.090;-1.832;2023-11-21T02:33:33;100476.91;;;9.68;100.00
51849;BME280;38952;51.090;-1.832;2023-11-21T02:36:00;100467.28;;;9.60;100.00
51849;BME280;38952;51.090;-1.832;2023-11-21T02:38:25;100464.81;;;9.58;100.00
51849;BME280;38952;51.090;-1.832;2023-11-21T02:40:51;100484.28;;;9.67;100.00
51849;BME280;38952;51.090;-1.832;2023-11-21T02:43:16;100496.03;;;9.68;100.00
51849;BME280;38952;51.090;-1.832;2023-11-21T02:45:45;100476.81;;;9.57;100.00
51849;BME280;38952;51.090;-1.832;2023-11-21T02:48:13;100488.88;;;9.61;100.00
51849;BME280;38952;51.090;-1.832;2023-11-21T02:50:39;100486.66;;;9.58;100.00
51849;BME280;38952;51.090;-1.832;2023-11-21T02:53:04;100484.19;;;9.57;100.00
51849;BME280;38952;51.090;-1.832;2023-11-21T02:55:36;100508.16;;;9.77;100.00
51849;BME280;38952;51.090;-1.832;2023-11-21T02:58:02;100482.97;;;9.70;100.00
51849;BME280;38952;51.090;-1.832;2023-11-21T03:00:29;100490.66;;;9.78;100.00
51849;BME280;38952;51.090;-1.832;2023-11-21T03:02:55;100480.25;;;9.75;100.00
51849;BME280;38952;51.090;-1.832;2023-11-21T03:05:24;100488.00;;;9.83;100.00
51849;BME280;38952;51.090;-1.832;2023-11-21T03:07:52;100474.34;;;9.83;100.00
51849;BME280;38952;51.090;-1.832;2023-11-21T03:10:17;100485.28;;;9.88;100.00
51849;BME280;38952;51.090;-1.832;2023-11-21T03:12:43;100491.34;;;9.95;100.00
51849;BME280;38952;51.090;-1.832;2023-11-21T03:15:12;100490.22;;;9.91;100.00
51849;BME280;38952;51.090;-1.832;2023-11-21T03:17:47;100481.19;;;9.86;100.00
51849;BME280;38952;51.090;-1.832;2023-11-21T03:20:14;100502.53;;;9.89;100.00
51849;BME280;38952;51.090;-1.832;2023-11-21T03:22:47;100496.28;;;9.93;100.00
51849;BME280;38952;51.090;-1.832;2023-11-21T03:25:20;100486.66;;;9.86;100.00
51849;BME280;38952;51.090;-1.832;2023-11-21T03:27:54;100498.41;;;9.86;100.00
51849;BME280;38952;51.090;-1.832;2023-11-21T03:30:20;100524.22;;;10.06;100.00
51849;BME280;38952;51.090;-1.832;2023-11-21T03:33:09;100516.53;;;9.98;100.00
51849;BME280;38952;51.090;-1.832;2023-11-21T03:35:45;100504.66;;;9.87;100.00
51849;BME280;38952;51.090;-1.832;2023-11-21T03:38:23;100540.09;;;10.09;100.00
51849;BME280;38952;51.090;-1.832;2023-11-21T03:40:49;100519.19;;;9.92;100.00
51849;BME280;38952;51.090;-1.832;2023-11-21T03:43:15;100550.75;;;10.05;100.00
51849;BME280;38952;51.090;-1.832;2023-11-21T03:45:41;100557.25;;;9.99;100.00
51849;BME280;38952;51.090;-1.832;2023-11-21T03:48:07;100556.09;;;9.95;100.00
51849;BME280;38952;51.090;-1.832;2023-11-21T03:50:32;100560.75;;;9.94;100.00
51849;BME280;38952;51.090;-1.832;2023-11-21T03:53:00;100552.50;;;9.89;100.00
51849;BME280;38952;51.090;-1.832;2023-11-21T03:55:26;100570.31;;;9.97;100.00
51849;BME280;38952;51.090;-1.832;2023-11-21T03:57:52;100557.97;;;9.89;100.00
51849;BME280;38952;51.090;-1.832;2023-11-21T04:00:18;100587.34;;;10.04;100.00
51849;BME280;38952;51.090;-1.832;2023-11-21T04:02:45;100590.31;;;10.03;100.00
51849;BME280;38952;51.090;-1.832;2023-11-21T04:05:11;100584.81;;;9.98;100.00
51849;BME280;38952;51.090;-1.832;2023-11-21T04:07:39;100572.94;;;9.87;100.00
51849;BME280;38952;51.090;-1.832;2023-11-21T04:10:06;100602.41;;;10.07;100.00
51849;BME280;38952;51.090;-1.832;2023-11-21T04:12:34;100577.41;;;9.93;100.00
51849;BME280;38952;51.090;-1.832;2023-11-21T04:15:00;100556.00;;;9.85;100.00
51849;BME280;38952;51.090;-1.832;2023-11-21T04:17:25;100574.97;;;9.96;100.00
51849;BME280;38952;51.090;-1.832;2023-11-21T04:19:51;100588.06;;;9.94;100.00
51849;BME280;38952;51.090;-1.832;2023-11-21T04:22:16;100595.16;;;9.95;100.00
51849;BME280;38952;51.090;-1.832;2023-11-21T04:24:41;100605.56;;;9.99;100.00
51849;BME280;38952;51.090;-1.832;2023-11-21T04:27:07;100606.09;;;9.95;100.00
51849;BME280;38952;51.090;-1.832;2023-11-21T04:29:33;100608.38;;;10.04;100.00
51849;BME280;38952;51.090;-1.832;2023-11-21T04:31:58;100563.50;;;9.72;100.00
51849;BME280;38952;51.090;-1.832;2023-11-21T04:34:26;100606.72;;;10.03;100.00
51849;BME280;38952;51.090;-1.832;2023-11-21T04:36:52;100603.94;;;9.98;100.00
51849;BME280;38952;51.090;-1.832;2023-11-21T04:39:17;100609.78;;;10.06;100.00
51849;BME280;38952;51.090;-1.832;2023-11-21T04:41:43;100608.91;;;10.01;100.00
51849;BME280;38952;51.090;-1.832;2023-11-21T04:44:08;100623.63;;;10.00;100.00
51849;BME280;38952;51.090;-1.832;2023-11-21T04:46:33;100628.56;;;10.03;100.00
51849;BME280;38952;51.090;-1.832;2023-11-21T04:48:59;100624.78;;;10.04;100.00
51849;BME280;38952;51.090;-1.832;2023-11-21T04:51:24;100630.22;;;10.04;100.00
51849;BME280;38952;51.090;-1.832;2023-11-21T04:53:50;100634.56;;;10.00;100.00
51849;BME280;38952;51.090;-1.832;2023-11-21T04:56:15;100642.56;;;10.06;100.00
51849;BME280;38952;51.090;-1.832;2023-11-21T04:58:44;100653.75;;;10.05;100.00
51849;BME280;38952;51.090;-1.832;2023-11-21T05:01:09;100647.44;;;10.04;100.00
51849;BME280;38952;51.090;-1.832;2023-11-21T05:03:35;100638.38;;;9.99;100.00
51849;BME280;38952;51.090;-1.832;2023-11-21T05:06:00;100659.00;;;10.11;100.00
51849;BME280;38952;51.090;-1.832;2023-11-21T05:08:26;100663.06;;;10.09;100.00
51849;BME280;38952;51.090;-1.832;2023-11-21T05:10:52;100659.22;;;10.05;100.00
51849;BME280;38952;51.090;-1.832;2023-11-21T05:13:18;100681.69;;;10.12;100.00
51849;BME280;38952;51.090;-1.832;2023-11-21T05:15:45;100682.69;;;10.06;100.00
51849;BME280;38952;51.090;-1.832;2023-11-21T05:18:10;100686.53;;;10.05;100.00
51849;BME280;38952;51.090;-1.832;2023-11-21T05:20:36;100687.53;;;9.99;100.00
51849;BME280;38952;51.090;-1.832;2023-11-21T05:23:03;100690.22;;;9.93;100.00
51849;BME280;38952;51.090;-1.832;2023-11-21T05:25:28;100710.16;;;9.94;100.00
51849;BME280;38952;51.090;-1.832;2023-11-21T05:27:54;100708.28;;;9.94;100.00
51849;BME280;38952;51.090;-1.832;2023-11-21T05:30:26;100715.38;;;9.95;100.00
51849;BME280;38952;51.090;-1.832;2023-11-21T05:32:51;100693.41;;;9.85;100.00
51849;BME280;38952;51.090;-1.832;2023-11-21T05:35:17;100698.84;;;9.85;100.00
51849;BME280;38952;51.090;-1.832;2023-11-21T05:37:43;100699.88;;;9.79;100.00
51849;BME280;38952;51.090;-1.832;2023-11-21T05:40:09;100716.97;;;9.91;100.00
51849;BME280;38952;51.090;-1.832;2023-11-21T05:42:46;100720.53;;;9.92;100.00
51849;BME280;38952;51.090;-1.832;2023-11-21T05:45:14;100710.94;;;9.89;100.00
51849;BME280;38952;51.090;-1.832;2023-11-21T05:47:45;100729.63;;;9.98;100.00
51849;BME280;38952;51.090;-1.832;2023-11-21T05:50:12;100744.16;;;10.03;100.00
51849;BME280;38952;51.090;-1.832;2023-11-21T05:52:47;100719.63;;;9.86;100.00
51849;BME280;38952;51.090;-1.832;2023-11-21T05:55:15;100751.59;;;10.08;100.00
51849;BME280;38952;51.090;-1.832;2023-11-21T05:57:42;100742.78;;;10.01;100.00
51849;BME280;38952;51.090;-1.832;2023-11-21T06:00:25;100738.88;;;9.96;100.00
51849;BME280;38952;51.090;-1.832;2023-11-21T06:02:53;100755.28;;;9.96;100.00
51849;BME280;38952;51.090;-1.832;2023-11-21T06:05:22;100751.66;;;9.91;100.00
51849;BME280;38952;51.090;-1.832;2023-11-21T06:07:49;100761.75;;;9.90;100.00
51849;BME280;38952;51.090;-1.832;2023-11-21T06:10:15;100769.38;;;9.88;100.00
51849;BME280;38952;51.090;-1.832;2023-11-21T06:12:43;100780.00;;;9.85;100.00
51849;BME280;38952;51.090;-1.832;2023-11-21T06:15:09;100774.56;;;9.68;100.00
51849;BME280;38952;51.090;-1.832;2023-11-21T06:17:40;100783.19;;;9.59;100.00
51849;BME280;38952;51.090;-1.832;2023-11-21T06:20:07;100787.34;;;9.45;100.00
51849;BME280;38952;51.090;-1.832;2023-11-21T06:22:41;100791.81;;;9.34;100.00
51849;BME280;38952;51.090;-1.832;2023-11-21T06:25:07;100794.38;;;9.24;100.00
51849;BME280;38952;51.090;-1.832;2023-11-21T06:27:38;100798.44;;;9.21;100.00
51849;BME280;38952;51.090;-1.832;2023-11-21T06:30:06;100759.47;;;8.92;100.00
51849;BME280;38952;51.090;-1.832;2023-11-21T06:32:32;100810.75;;;9.07;100.00
51849;BME280;38952;51.090;-1.832;2023-11-21T06:34:58;100801.41;;;9.03;100.00
51849;BME280;38952;51.090;-1.832;2023-11-21T06:37:27;100803.88;;;9.04;100.00
51849;BME280;38952;51.090;-1.832;2023-11-21T06:39:53;100817.28;;;9.06;100.00
51849;BME280;38952;51.090;-1.832;2023-11-21T06:42:19;100818.94;;;9.07;100.00
51849;BME280;38952;51.090;-1.832;2023-11-21T06:44:47;100811.72;;;9.01;100.00
51849;BME280;38952;51.090;-1.832;2023-11-21T06:47:13;100824.88;;;9.04;100.00
51849;BME280;38952;51.090;-1.832;2023-11-21T06:49:39;100809.81;;;9.01;100.00
51849;BME280;38952;51.090;-1.832;2023-11-21T06:52:05;100811.63;;;8.96;100.00
51849;BME280;38952;51.090;-1.832;2023-11-21T06:54:31;100825.03;;;8.97;100.00
51849;BME280;38952;51.090;-1.832;2023-11-21T06:56:57;100809.66;;;8.91;100.00
51849;BME280;38952;51.090;-1.832;2023-11-21T06:59:23;100839.09;;;9.06;100.00
51849;BME280;38952;51.090;-1.832;2023-11-21T07:01:51;100825.34;;;9.01;100.00
51849;BME280;38952;51.090;-1.832;2023-11-21T07:04:16;100825.94;;;9.03;100.00
51849;BME280;38952;51.090;-1.832;2023-11-21T07:06:42;100838.16;;;9.00;99.29
51849;BME280;38952;51.090;-1.832;2023-11-21T07:09:08;100857.94;;;9.07;98.66
51849;BME280;38952;51.090;-1.832;2023-11-21T07:11:37;100873.69;;;9.17;98.11
51849;BME280;38952;51.090;-1.832;2023-11-21T07:14:04;100885.41;;;9.18;97.81
51849;BME280;38952;51.090;-1.832;2023-11-21T07:16:38;100873.50;;;9.07;97.58
51849;BME280;38952;51.090;-1.832;2023-11-21T07:19:04;100891.84;;;9.12;96.67
51849;BME280;38952;51.090;-1.832;2023-11-21T07:24:24;100898.09;;;8.95;95.46
51849;BME280;38952;51.090;-1.832;2023-11-21T07:26:52;100869.59;;;8.74;94.90
51849;BME280;38952;51.090;-1.832;2023-11-21T07:29:23;100895.25;;;8.90;94.57
51849;BME280;38952;51.090;-1.832;2023-11-21T07:32:04;100893.09;;;8.92;93.75
51849;BME280;38952;51.090;-1.832;2023-11-21T07:34:32;100901.41;;;8.97;93.92
51849;BME280;38952;51.090;-1.832;2023-11-21T07:37:05;100907.34;;;8.94;92.88
51849;BME280;38952;51.090;-1.832;2023-11-21T07:39:31;100940.22;;;9.16;93.05
51849;BME280;38952;51.090;-1.832;2023-11-21T07:41:56;100931.59;;;9.07;92.49
51849;BME280;38952;51.090;-1.832;2023-11-21T07:44:25;100934.34;;;9.07;92.22
51849;BME280;38952;51.090;-1.832;2023-11-21T07:46:51;100956.09;;;9.19;91.93
51849;BME280;38952;51.090;-1.832;2023-11-21T07:49:17;100948.41;;;9.16;92.02
51849;BME280;38952;51.090;-1.832;2023-11-21T07:51:45;100945.19;;;9.19;91.74
51849;BME280;38952;51.090;-1.832;2023-11-21T07:54:11;100944.25;;;9.14;91.51
51849;BME280;38952;51.090;-1.832;2023-11-21T07:56:39;100964.41;;;9.24;91.50
51849;BME280;38952;51.090;-1.832;2023-11-21T07:59:05;100947.72;;;9.09;90.85
51849;BME280;38952;51.090;-1.832;2023-11-21T08:01:37;100949.41;;;9.10;90.67
51849;BME280;38952;51.090;-1.832;2023-11-21T08:04:03;100970.25;;;9.16;90.16
51849;BME280;38952;51.090;-1.832;2023-11-21T08:06:31;100966.44;;;9.17;90.13
51849;BME280;38952;51.090;-1.832;2023-11-21T08:09:01;100977.38;;;9.17;89.85
51849;BME280;38952;51.090;-1.832;2023-11-21T08:11:29;100971.91;;;9.17;90.12
51849;BME280;38952;51.090;-1.832;2023-11-21T08:13:56;100977.38;;;9.17;89.85
51849;BME280;38952;51.090;-1.832;2023-11-21T08:16:22;100973.47;;;9.13;90.09
51849;BME280;38952;51.090;-1.832;2023-11-21T08:18:49;100975.47;;;9.18;89.75
51849;BME280;38952;51.090;-1.832;2023-11-21T08:21:14;100983.16;;;9.21;89.36
51849;BME280;38952;51.090;-1.832;2023-11-21T08:23:40;100979.13;;;9.23;89.62
51849;BME280;38952;51.090;-1.832;2023-11-21T08:26:06;100985.34;;;9.36;89.41
51849;BME280;38952;51.090;-1.832;2023-11-21T08:28:31;100986.44;;;9.35;89.71
51849;BME280;38952;51.090;-1.832;2023-11-21T08:30:57;100984.97;;;9.44;89.19
51849;BME280;38952;51.090;-1.832;2023-11-21T08:33:22;100994.22;;;9.43;89.50
51849;BME280;38952;51.090;-1.832;2023-11-21T08:35:50;100993.63;;;9.41;89.22
51849;BME280;38952;51.090;-1.832;2023-11-21T08:38:17;101010.09;;;9.46;89.15
51849;BME280;38952;51.090;-1.832;2023-11-21T08:40:43;101013.50;;;9.53;89.21
51849;BME280;38952;51.090;-1.832;2023-11-21T08:43:08;101014.13;;;9.55;89.04
51849;BME280;38952;51.090;-1.832;2023-11-21T08:45:34;101021.81;;;9.58;88.76
51849;BME280;38952;51.090;-1.832;2023-11-21T08:48:03;101028.44;;;9.63;88.15
51849;BME280;38952;51.090;-1.832;2023-11-21T08:50:29;101023.06;;;9.68;88.14
51849;BME280;38952;51.090;-1.832;2023-11-21T08:52:54;101029.44;;;9.73;88.15
51849;BME280;38952;51.090;-1.832;2023-11-21T08:55:20;101038.56;;;9.79;87.66
51849;BME280;38952;51.090;-1.832;2023-11-21T08:57:46;101030.63;;;9.77;87.36
51849;BME280;38952;51.090;-1.832;2023-11-21T09:00:14;101031.13;;;9.91;87.32
51849;BME280;38952;51.090;-1.832;2023-11-21T09:02:43;101040.59;;;10.01;86.89
51849;BME280;38952;51.090;-1.832;2023-11-21T09:05:10;101048.28;;;10.04;86.96
51849;BME280;38952;51.090;-1.832;2023-11-21T09:07:39;101035.63;;;9.98;86.63
51849;BME280;38952;51.090;-1.832;2023-11-21T09:10:06;101042.25;;;10.02;86.38
51849;BME280;38952;51.090;-1.832;2023-11-21T09:12:33;101016.72;;;9.79;86.24
51849;BME280;38952;51.090;-1.832;2023-11-21T09:15:07;101038.84;;;9.94;86.92
51849;BME280;38952;51.090;-1.832;2023-11-21T09:17:35;101039.97;;;9.99;86.36
51849;BME280;38952;51.090;-1.832;2023-11-21T09:20:00;101056.81;;;10.07;86.26
51849;BME280;38952;51.090;-1.832;2023-11-21T09:22:26;101036.53;;;10.03;85.98
51849;BME280;38952;51.090;-1.832;2023-11-21T09:24:52;101041.75;;;10.05;85.64
51849;BME280;38952;51.090;-1.832;2023-11-21T09:27:18;101037.91;;;10.06;86.15
51849;BME280;38952;51.090;-1.832;2023-11-21T09:29:43;101064.94;;;10.19;85.65
51849;BME280;38952;51.090;-1.832;2023-11-21T09:32:09;101057.81;;;10.18;85.29
51849;BME280;38952;51.090;-1.832;2023-11-21T09:34:38;101064.44;;;10.22;84.93
51849;BME280;38952;51.090;-1.832;2023-11-21T09:37:04;101062.28;;;10.24;85.68
51849;BME280;38952;51.090;-1.832;2023-11-21T09:39:34;101068.09;;;10.28;85.34
51849;BME280;38952;51.090;-1.832;2023-11-21T09:45:03;101085.63;;;10.32;85.45
51849;BME280;38952;51.090;-1.832;2023-11-21T09:47:32;101069.91;;;10.22;85.13
51849;BME280;38952;51.090;-1.832;2023-11-21T09:50:02;101078.19;;;10.27;85.35
51849;BME280;38952;51.090;-1.832;2023-11-21T09:52:28;101090.03;;;10.33;84.85
51849;BME280;38952;51.090;-1.832;2023-11-21T09:54:55;101090.88;;;10.34;85.60
51849;BME280;38952;51.090;-1.832;2023-11-21T09:57:23;101098.03;;;10.35;85.59
51849;BME280;38952;51.090;-1.832;2023-11-21T09:59:53;101106.81;;;10.37;85.39
51849;BME280;38952;51.090;-1.832;2023-11-21T10:02:28;101108.47;;;10.38;85.01
51849;BME280;38952;51.090;-1.832;2023-11-21T10:04:59;101091.28;;;10.25;85.47
51849;BME280;38952;51.090;-1.832;2023-11-21T10:07:26;101088.81;;;10.24;85.60
51849;BME280;38952;51.090;-1.832;2023-11-21T10:09:52;101100.06;;;10.27;86.72
51849;BME280;38952;51.090;-1.832;2023-11-21T10:12:18;101095.00;;;10.19;86.60
51849;BME280;38952;51.090;-1.832;2023-11-21T10:14:51;101092.75;;;10.16;86.88
51849;BME280;38952;51.090;-1.832;2023-11-21T10:17:20;101078.34;;;10.04;86.76
51849;BME280;38952;51.090;-1.832;2023-11-21T10:19:49;101121.34;;;10.25;87.21
51849;BME280;38952;51.090;-1.832;2023-11-21T10:22:15;101122.41;;;10.24;87.51
51849;BME280;38952;51.090;-1.832;2023-11-21T10:24:42;101124.00;;;10.20;86.99
51849;BME280;38952;51.090;-1.832;2023-11-21T10:27:09;101124.84;;;10.21;86.69
51849;BME280;38952;51.090;-1.832;2023-11-21T10:29:34;101124.91;;;10.26;86.95
51849;BME280;38952;51.090;-1.832;2023-11-21T10:32:04;101125.72;;;10.26;87.06
51849;BME280;38952;51.090;-1.832;2023-11-21T10:34:31;101129.19;;;10.22;86.98
51849;BME280;38952;51.090;-1.832;2023-11-21T10:36:57;101138.69;;;10.31;87.68
51849;BME280;38952;51.090;-1.832;2023-11-21T10:39:24;101130.22;;;10.33;87.78
51849;BME280;38952;51.090;-1.832;2023-11-21T10:41:53;101140.44;;;10.37;88.06
51849;BME280;38952;51.090;-1.832;2023-11-21T10:44:20;101145.41;;;10.40;88.04
51849;BME280;38952;51.090;-1.832;2023-11-21T10:46:55;101144.09;;;10.43;88.09
51849;BME280;38952;51.090;-1.832;2023-11-21T10:49:25;101144.59;;;10.40;88.74
51849;BME280;38952;51.090;-1.832;2023-11-21T10:51:53;101144.59;;;10.40;88.98
51849;BME280;38952;51.090;-1.832;2023-11-21T10:56:48;101143.84;;;10.44;89.59
51849;BME280;38952;51.090;-1.832;2023-11-21T10:59:16;101149.81;;;10.58;89.47
51849;BME280;38952;51.090;-1.832;2023-11-21T11:01:43;101148.25;;;10.62;89.25
51849;BME280;38952;51.090;-1.832;2023-11-21T11:04:10;101142.59;;;10.52;90.23
51849;BME280;38952;51.090;-1.832;2023-11-21T11:06:43;101143.00;;;10.44;90.92
51849;BME280;38952;51.090;-1.832;2023-11-21T11:09:11;101146.41;;;10.51;91.18
51849;BME280;38952;51.090;-1.832;2023-11-21T11:11:40;101136.06;;;10.53;91.04
51849;BME280;38952;51.090;-1.832;2023-11-21T11:14:13;101135.63;;;10.61;91.52
51849;BME280;38952;51.090;-1.832;2023-11-21T11:16:40;101145.16;;;10.76;91.61
51849;BME280;38952;51.090;-1.832;2023-11-21T11:19:07;101132.91;;;10.78;91.56
51849;BME280;38952;51.090;-1.832;2023-11-21T11:27:34;101152.50;;;11.09;91.50
51849;BME280;38952;51.090;-1.832;2023-11-21T11:35:52;101153.44;;;11.59;89.41
51849;BME280;38952;51.090;-1.832;2023-11-21T11:38:23;101149.97;;;11.64;89.27
51849;BME280;38952;51.090;-1.832;2023-11-21T11:40:52;101162.50;;;11.82;88.61
51849;BME280;38952;51.090;-1.832;2023-11-21T11:43:28;101151.66;;;11.92;88.96
51849;BME280;38952;51.090;-1.832;2023-11-21T11:45:57;101158.94;;;12.03;88.16
51849;BME280;38952;51.090;-1.832;2023-11-21T11:48:24;101158.81;;;11.93;87.83
51849;BME280;38952;51.090;-1.832;2023-11-21T11:51:13;101170.97;;;11.80;88.26
51849;BME280;38952;51.090;-1.832;2023-11-21T11:53:47;101162.56;;;11.65;88.38
51849;BME280;38952;51.090;-1.832;2023-11-21T11:58:52;101163.28;;;11.55;88.34
51849;BME280;38952;51.090;-1.832;2023-11-21T12:01:19;101167.00;;;11.49;88.40
51849;BME280;38952;51.090;-1.832;2023-11-21T12:03:44;101162.16;;;11.56;88.50
51849;BME280;38952;51.090;-1.832;2023-11-21T12:06:10;101149.81;;;11.76;87.97
51849;BME280;38952;51.090;-1.832;2023-11-21T12:08:37;101170.94;;;11.97;86.28
51849;BME280;38952;51.090;-1.832;2023-11-21T12:11:03;101155.59;;;12.01;85.73
51849;BME280;38952;51.090;-1.832;2023-11-21T12:13:30;101175.47;;;12.14;85.46
51849;BME280;38952;51.090;-1.832;2023-11-21T12:15:55;101178.34;;;12.24;85.06
51849;BME280;38952;51.090;-1.832;2023-11-21T12:18:21;101174.38;;;12.15;85.50
51849;BME280;38952;51.090;-1.832;2023-11-21T12:20:46;101177.09;;;12.10;85.98
51849;BME280;38952;51.090;-1.832;2023-11-21T12:23:14;101184.84;;;12.18;86.15
51849;BME280;38952;51.090;-1.832;2023-11-21T12:25:41;101174.97;;;12.17;85.82
51849;BME280;38952;51.090;-1.832;2023-11-21T12:28:07;101184.22;;;12.11;86.06
51849;BME280;38952;51.090;-1.832;2023-11-21T12:30:34;101170.72;;;12.04;86.68
51849;BME280;38952;51.090;-1.832;2023-11-21T12:33:04;101177.09;;;12.10;86.68
51849;BME280;38952;51.090;-1.832;2023-11-21T12:35:33;101180.63;;;12.10;86.41
51849;BME280;38952;51.090;-1.832;2023-11-21T12:38:00;101178.75;;;12.11;86.06
51849;BME280;38952;51.090;-1.832;2023-11-21T12:40:28;101193.72;;;12.25;86.18
51849;BME280;38952;51.090;-1.832;2023-11-21T12:42:58;101204.56;;;12.42;85.59
51849;BME280;38952;51.090;-1.832;2023-11-21T12:45:26;101208.34;;;12.63;85.41
51849;BME280;38952;51.090;-1.832;2023-11-21T12:48:07;101203.47;;;12.75;84.68
51849;BME280;38952;51.090;-1.832;2023-11-21T12:50:34;101219.16;;;12.80;84.08
51849;BME280;38952;51.090;-1.832;2023-11-21T12:53:09;101221.31;;;13.10;83.46
51849;BME280;38952;51.090;-1.832;2023-11-21T12:55:37;101229.53;;;13.05;82.09
51849;BME280;38952;51.090;-1.832;2023-11-21T12:58:04;101226.94;;;12.93;82.30
51849;BME280;38952;51.090;-1.832;2023-11-21T13:00:57;101215.38;;;12.86;82.45
51849;BME280;38952;51.090;-1.832;2023-11-21T13:03:25;101227.19;;;12.87;81.98
51849;BME280;38952;51.090;-1.832;2023-11-21T13:05:52;101233.03;;;12.63;82.29
51849;BME280;38952;51.090;-1.832;2023-11-21T13:08:23;101229.94;;;12.54;82.90